Time;durP1;ratioP1;P1;durP2;ratioP2;P2;SDS_P1;SDS_P2;PMS_P1;PMS_P2;Temp;Humidity;BMP_temperature;BMP_pressure;BME280_temperature;BME280_humidity;BME280_pressure;Samples;Min_cycle;Max_cycle;Signal;HPM_P1;HPM_P2
2023/07/07 00:04:41;;;;;;;3.17;2.40;;;;;;;-145.68;85.13;74237.41;10583447;28;20235;-75
2023/07/07 00:09:41;;;;;;;3.57;2.70;;;;;;;-145.68;85.81;74243.41;10565029;28;20194;-74
2023/07/07 00:14:42;;;;;;;3.10;2.80;;;;;;;-145.68;85.74;74241.41;10583118;28;20227;-75
2023/07/07 00:19:43;;;;;;;4.17;2.50;;;;;;;-145.68;86.01;74249.41;10582629;28;20197;-74
2023/07/07 00:24:43;;;;;;;7.00;2.47;;;;;;;-145.68;85.69;74247.41;10564706;28;20668;-74
2023/07/07 00:29:43;;;;;;;4.18;3.03;;;;;;;-145.68;85.74;74265.41;10581990;28;20680;-74
2023/07/07 00:34:44;;;;;;;9.05;2.60;;;;;;;-145.68;86.37;74271.41;10562970;28;20595;-74
2023/07/07 00:39:44;;;;;;;4.05;2.78;;;;;;;-145.68;87.24;74287.41;10581693;28;20550;-75
2023/07/07 00:45:11;;;;;;;7.07;2.90;;;;;;;-145.68;88.24;74291.41;10555776;28;20179;-75
2023/07/07 00:50:14;;;;;;;4.17;2.97;;;;;;;-145.68;89.16;74305.38;10539395;28;20542;-74
2023/07/07 00:55:19;;;;;;;7.60;2.97;;;;;;;-145.68;89.96;74317.38;10539221;28;20245;-75
2023/07/07 01:00:20;;;;;;;7.05;3.17;;;;;;;-145.68;90.45;74321.38;10520191;28;20198;-74
2023/07/07 01:05:22;;;;;;;5.47;2.53;;;;;;;-145.68;89.84;74311.38;10520740;28;20183;-75
2023/07/07 01:10:22;;;;;;;4.90;2.70;;;;;;;-145.68;88.67;74305.38;10538489;28;20658;-74
2023/07/07 01:15:25;;;;;;;4.78;2.35;;;;;;;-145.68;88.42;74309.38;10538549;28;20206;-74
2023/07/07 01:21:01;;;;;;;4.03;2.50;;;;;;;-145.68;88.13;74309.38;10519945;28;20198;-75
2023/07/07 01:26:15;;;;;;;4.03;2.50;;;;;;;-145.68;87.47;74303.38;10537963;28;20731;-74
2023/07/07 01:31:18;;;;;;;4.87;2.57;;;;;;;-145.68;87.66;74307.38;10519059;28;20226;-75
2023/07/07 01:36:18;;;;;;;4.97;3.00;;;;;;;-145.68;88.30;74321.38;10501853;28;20272;-75
2023/07/07 01:41:38;;;;;;;6.17;2.80;;;;;;;-145.68;88.04;74315.38;10536031;28;20206;-75
2023/07/07 01:47:01;;;;;;;4.27;2.87;;;;;;;-145.68;88.51;74313.38;10518109;28;20236;-73
2023/07/07 01:52:06;;;;;;;3.77;2.60;;;;;;;-145.68;87.73;74311.38;10519130;28;20179;-73
2023/07/07 01:57:07;;;;;;;7.67;2.60;;;;;;;-145.68;87.73;74315.38;10518431;28;20275;-73
2023/07/07 02:02:08;;;;;;;3.70;2.53;;;;;;;-145.68;87.34;74323.38;10501640;28;20555;-73
2023/07/07 02:07:08;;;;;;;4.57;2.70;;;;;;;-145.68;86.81;74319.38;10518504;28;20271;-74
2023/07/07 02:12:08;;;;;;;3.87;2.67;;;;;;;-145.68;86.75;74323.38;10501255;28;20289;-73
2023/07/07 02:17:09;;;;;;;5.83;2.80;;;;;;;-145.68;86.59;74329.38;10535928;28;20783;-73
2023/07/07 02:22:09;;;;;;;4.60;2.60;;;;;;;-145.68;86.38;74325.38;10535853;28;20291;-74
2023/07/07 02:27:10;;;;;;;8.13;3.30;;;;;;;-145.68;85.77;74315.38;10535278;28;20187;-74
2023/07/07 02:32:10;;;;;;;6.07;3.43;;;;;;;-145.68;85.24;74319.38;10535610;28;20238;-73
2023/07/07 02:37:12;;;;;;;4.93;2.80;;;;;;;-145.68;85.04;74325.38;10534337;28;20245;-73
2023/07/07 02:42:14;;;;;;;3.73;2.70;;;;;;;-145.68;84.99;74327.38;10535502;28;20193;-74
2023/07/07 02:47:14;;;;;;;5.30;2.80;;;;;;;-145.68;85.77;74335.38;10534854;28;20178;-74
2023/07/07 02:52:14;;;;;;;3.83;2.40;;;;;;;-145.68;85.07;74331.38;10516561;28;20186;-74
2023/07/07 02:57:15;;;;;;;7.93;2.70;;;;;;;-145.68;84.63;74325.38;10516050;28;20304;-74
2023/07/07 03:02:15;;;;;;;6.63;3.17;;;;;;;-145.68;84.45;74327.38;10533958;28;20213;-73
2023/07/07 03:07:16;;;;;;;6.63;2.40;;;;;;;-145.68;84.23;74321.38;10573043;28;20850;-74
2023/07/07 03:12:16;;;;;;;4.07;2.80;;;;;;;-145.68;83.28;74313.38;10554099;28;20228;-74
2023/07/07 03:17:17;;;;;;;6.17;2.83;;;;;;;-145.68;82.12;74305.38;10572382;28;20762;-74
2023/07/07 03:22:20;;;;;;;3.73;2.50;;;;;;;-145.68;80.75;74303.38;10553462;28;20193;-74
2023/07/07 03:27:32;;;;;;;2.77;2.40;;;;;;;-145.68;80.83;74315.38;10553796;28;20182;-75
2023/07/07 03:32:34;;;;;;;8.13;2.60;;;;;;;-145.68;81.38;74327.38;10554001;28;20253;-74
2023/07/07 03:37:38;;;;;;;11.63;2.37;;;;;;;-145.68;81.61;74325.38;10553282;28;20588;-75
2023/07/07 03:42:39;;;;;;;9.23;2.60;;;;;;;-145.68;81.27;74335.38;10553705;28;20189;-74
2023/07/07 03:47:44;;;;;;;7.57;2.70;;;;;;;-145.68;80.67;74321.38;10553464;28;20205;-74
2023/07/07 03:52:44;;;;;;;5.87;2.63;;;;;;;-145.68;80.96;74327.38;10553642;28;20227;-74
2023/07/07 03:57:45;;;;;;;4.77;2.77;;;;;;;-145.68;80.40;74309.38;10552966;28;20754;-74
2023/07/07 04:02:45;;;;;;;6.13;3.00;;;;;;;-145.68;80.09;74305.38;10573600;28;20661;-75
2023/07/07 04:07:46;;;;;;;5.60;2.93;;;;;;;-145.68;79.18;74287.41;10578662;28;20257;-74
2023/07/07 04:12:46;;;;;;;3.87;2.50;;;;;;;-145.68;77.79;74265.41;10583040;28;20185;-74
2023/07/07 04:17:47;;;;;;;7.60;2.93;;;;;;;-145.68;76.78;74235.41;10564940;28;20214;-74
2023/07/07 04:22:47;;;;;;;4.57;2.63;;;;;;;-145.68;75.51;74211.44;10564676;28;20215;-74
2023/07/07 04:27:47;;;;;;;4.60;2.57;;;;;;;-145.68;76.17;74215.44;10582186;28;20265;-74
2023/07/07 04:32:48;;;;;;;8.40;2.50;;;;;;;-145.68;75.19;74189.44;10550788;28;20234;-74
2023/07/07 04:37:48;;;;;;;4.47;3.10;;;;;;;-145.68;72.54;74157.44;10539705;28;20215;-74
2023/07/07 04:42:48;;;;;;;6.60;2.30;;;;;;;-145.68;72.04;74127.47;10539903;28;20274;-75
2023/07/07 04:47:49;;;;;;;4.03;2.53;;;;;;;-145.68;70.93;74107.47;10539669;28;20187;-75
2023/07/07 04:52:49;;;;;;;3.47;2.65;;;;;;;-145.68;70.26;74085.47;10539115;28;20227;-74
2023/07/07 04:57:50;;;;;;;6.82;3.03;;;;;;;-145.68;69.50;74067.50;10521160;28;20222;-75
2023/07/07 05:02:50;;;;;;;3.55;2.60;;;;;;;-145.68;67.90;74017.50;10574692;28;20194;-75
2023/07/07 05:07:50;;;;;;;3.80;2.72;;;;;;;-145.68;66.97;73979.53;10562945;28;20190;-75
2023/07/07 05:12:51;;;;;;;6.25;2.78;;;;;;;-145.68;66.11;73935.56;10580963;28;20188;-75
2023/07/07 05:17:51;;;;;;;6.88;2.80;;;;;;;-145.68;66.03;73903.56;10579471;28;20308;-75
2023/07/07 05:22:51;;;;;;;3.97;2.40;;;;;;;-145.68;65.31;73869.59;10580938;28;20194;-75
2023/07/07 05:27:52;;;;;;;5.03;2.47;;;;;;;-145.68;64.41;73831.59;10579886;28;20193;-75
2023/07/07 05:32:52;;;;;;;11.10;2.90;;;;;;;-145.68;63.78;73809.63;10578316;28;20229;-74
2023/07/07 05:37:52;;;;;;;6.00;2.47;;;;;;;-145.68;63.34;73767.66;10578668;28;20343;-75
2023/07/07 05:42:53;;;;;;;4.60;2.95;;;;;;;-145.68;61.65;73725.66;10561269;28;20204;-75
2023/07/07 05:47:53;;;;;;;5.25;2.85;;;;;;;-145.68;61.04;73685.69;10579484;28;20186;-75
2023/07/07 05:52:54;;;;;;;5.43;2.70;;;;;;;-145.68;60.98;73669.69;10578999;28;20272;-75
2023/07/07 05:57:55;;;;;;;4.70;2.60;;;;;;;-145.68;59.87;73623.72;10578971;28;20270;-75
2023/07/07 06:02:56;;;;;;;10.68;2.88;;;;;;;-145.68;59.15;73567.75;10578393;28;20190;-75
2023/07/07 06:07:57;;;;;;;3.78;2.53;;;;;;;-145.68;57.43;73487.81;10578453;28;20784;-75
2023/07/07 06:12:57;;;;;;;5.35;2.55;;;;;;;-145.68;55.04;73407.84;10578493;28;20315;-75
2023/07/07 06:17:57;;;;;;;7.38;2.50;;;;;;;-145.68;53.49;73335.91;10577656;28;20275;-76
2023/07/07 06:22:58;;;;;;;4.20;2.47;;;;;;;-145.68;52.27;73267.94;10577671;28;20190;-75
2023/07/07 06:27:58;;;;;;;6.00;2.67;;;;;;;-145.68;50.61;73198.00;10577674;28;20295;-74
2023/07/07 06:32:58;;;;;;;5.28;2.72;;;;;;;-145.68;48.48;73028.09;10576497;28;20241;-76
2023/07/07 06:37:59;;;;;;;3.17;2.53;;;;;;;-145.68;45.79;72912.19;10576538;28;20232;-74
2023/07/07 06:42:59;;;;;;;3.70;2.60;;;;;;;-145.68;42.02;72736.31;10577269;28;20193;-74
2023/07/07 06:48:02;;;;;;;5.50;2.92;;;;;;;-145.68;37.92;72654.41;10558263;28;20325;-74
2023/07/07 06:53:02;;;;;;;7.35;2.67;;;;;;;-145.68;37.09;72464.56;10577030;28;20190;-74
2023/07/07 06:58:03;;;;;;;6.50;2.63;;;;;;;-145.68;36.22;72448.56;10576095;28;20217;-74
2023/07/07 07:03:04;;;;;;;5.28;2.67;;;;;;;-145.68;36.30;72442.56;10573956;28;20514;-74
2023/07/07 07:08:04;;;;;;;3.60;2.72;;;;;;;-145.68;36.56;72476.53;10573923;28;20214;-74
2023/07/07 07:13:04;;;;;;;3.93;2.40;;;;;;;-145.68;35.66;72422.59;10570915;28;20591;-74
2023/07/07 07:18:05;;;;;;;5.57;2.53;;;;;;;-145.68;36.62;72474.53;10574026;28;20458;-74
2023/07/07 07:23:05;;;;;;;4.20;2.53;;;;;;;-145.68;35.75;72394.63;10553901;28;20280;-74
2023/07/07 07:28:06;;;;;;;12.43;3.28;;;;;;;-145.68;35.30;72344.66;10572970;28;20490;-74
2023/07/07 07:33:11;;;;;;;4.63;2.50;;;;;;;-145.68;32.77;72166.81;10573982;28;20607;-74
2023/07/07 07:38:17;;;;;;;3.38;2.17;;;;;;;-145.68;33.49;72178.81;10573822;28;20674;-74
2023/07/07 07:43:17;;;;;;;4.72;2.47;;;;;;;-145.68;34.21;72286.72;10578739;28;20228;-74
2023/07/07 07:48:17;;;;;;;5.22;2.90;;;;;;;-145.68;33.06;72140.84;10582603;28;20220;-74
2023/07/07 07:53:19;;;;;;;5.80;2.43;;;;;;;-145.68;33.08;72100.88;10582521;28;20190;-74
2023/07/07 07:58:19;;;;;;;3.40;2.65;;;;;;;-145.68;34.18;72250.75;10581970;28;20435;-75
2023/07/07 08:03:19;;;;;;;5.43;2.37;;;;;;;-145.68;34.72;72264.72;10581933;28;20196;-75
2023/07/07 08:08:20;;;;;;;6.05;2.65;;;;;;;-145.68;34.91;72320.69;10581345;28;20483;-75
2023/07/07 08:13:20;;;;;;;3.40;2.13;;;;;;;-145.68;34.48;72248.75;10580214;28;20186;-74
2023/07/07 08:18:20;;;;;;;4.83;2.10;;;;;;;-145.68;34.12;72298.69;10578277;28;20568;-74
2023/07/07 08:23:21;;;;;;;4.17;2.27;;;;;;;-145.68;32.66;72136.84;10579935;28;20435;-74
2023/07/07 08:28:21;;;;;;;3.03;2.47;;;;;;;-145.68;31.46;71985.00;10580507;28;21005;-74
2023/07/07 08:33:22;;;;;;;4.57;2.60;;;;;;;-145.68;31.47;71977.00;10579255;28;20238;-74
2023/07/07 08:38:22;;;;;;;6.93;3.00;;;;;;;-145.68;33.21;72150.84;10579044;28;20708;-74
2023/07/07 08:43:23;;;;;;;4.30;2.53;;;;;;;-145.68;33.28;72178.81;10578173;28;20817;-74
2023/07/07 08:48:43;;;;;;;5.47;2.45;;;;;;;-145.68;30.36;71933.03;10554308;28;20214;-74
2023/07/07 08:53:59;;;;;;;8.77;2.95;;;;;;;-145.68;31.57;72034.94;10556720;28;20193;-74
2023/07/07 08:59:24;;;;;;;6.15;2.80;;;;;;;-145.68;33.48;72184.81;10576575;28;20268;-75
2023/07/07 09:04:33;;;;;;;5.50;2.63;;;;;;;-145.68;32.69;72142.84;10573611;28;20194;-74
2023/07/07 09:10:04;;;;;;;6.90;2.75;;;;;;;-145.68;31.76;72250.75;10575912;28;20210;-74
2023/07/07 09:15:13;;;;;;;4.13;2.53;;;;;;;-145.68;33.28;72200.78;10579071;28;20285;-75
2023/07/07 09:20:14;;;;;;;7.13;3.05;;;;;;;-145.68;31.75;72052.94;10578061;28;20695;-74
2023/07/07 09:25:14;;;;;;;5.57;2.67;;;;;;;-145.68;30.74;71925.06;10577209;28;20363;-74
2023/07/07 09:30:34;;;;;;;6.50;2.60;;;;;;;-145.68;31.39;72114.88;10578196;28;20269;-74
2023/07/07 09:35:39;;;;;;;6.10;3.03;;;;;;;-145.68;33.94;72360.66;10559361;28;20307;-74
2023/07/07 09:41:09;;;;;;;4.38;2.80;;;;;;;-145.68;35.58;72518.50;10574727;28;20336;-74
2023/07/07 09:46:23;;;;;;;5.18;2.70;;;;;;;-145.68;33.63;72354.66;10573353;28;20225;-74
2023/07/07 09:51:42;;;;;;;4.22;2.58;;;;;;;-145.68;31.54;72080.91;10558762;28;20676;-74
2023/07/07 09:56:55;;;;;;;8.43;2.50;;;;;;;-145.68;31.84;72030.94;10556726;28;20653;-75
2023/07/07 10:01:56;;;;;;;7.45;2.47;;;;;;;-145.68;29.62;71719.25;10559125;28;20193;-74
2023/07/07 10:06:58;;;;;;;4.20;2.20;;;;;;;-145.68;30.39;71913.06;10576392;28;20214;-74
2023/07/07 10:11:58;;;;;;;5.47;2.88;;;;;;;-145.68;30.29;71915.06;10558029;28;20215;-75
2023/07/07 10:17:09;;;;;;;4.90;2.40;;;;;;;-145.68;29.11;71761.22;10576579;28;20182;-74
2023/07/07 10:22:14;;;;;;;3.55;2.38;;;;;;;-145.68;28.75;71593.41;10557897;28;20211;-74
2023/07/07 10:27:18;;;;;;;3.78;2.22;;;;;;;-145.68;28.72;71617.38;10575479;28;20235;-74
2023/07/07 10:32:22;;;;;;;3.80;2.65;;;;;;;-145.68;27.91;71643.34;10557614;28;20233;-75
2023/07/07 10:37:31;;;;;;;4.85;2.65;;;;;;;-145.68;31.85;72164.81;10574866;28;20198;-74
2023/07/07 10:42:32;;;;;;;5.20;2.47;;;;;;;-145.68;29.00;71777.22;10574396;28;20209;-75
2023/07/07 10:47:35;;;;;;;5.00;2.60;;;;;;;-145.68;29.61;71737.25;10574982;28;20217;-75
2023/07/07 10:52:41;;;;;;;4.65;2.55;;;;;;;-145.68;28.12;71695.28;10557492;28;20193;-74
2023/07/07 10:58:16;;;;;;;3.70;2.55;;;;;;;-145.68;28.48;71645.34;10574562;28;20223;-75
2023/07/07 11:03:53;;;;;;;3.00;2.60;;;;;;;-145.68;27.77;71565.44;10575529;28;20540;-74
2023/07/07 11:09:09;;;;;;;2.47;2.10;;;;;;;-145.68;26.94;71533.47;10574281;28;20719;-74
2023/07/07 11:14:20;;;;;;;3.38;2.50;;;;;;;-145.68;27.18;71745.25;10555469;28;20872;-74
2023/07/07 11:19:43;;;;;;;3.10;2.30;;;;;;;-145.68;26.68;71529.47;10572238;28;20189;-74
2023/07/07 11:24:48;;;;;;;8.00;2.30;;;;;;;-145.68;26.95;71461.53;10570033;28;20265;-74
2023/07/07 11:29:57;;;;;;;4.63;2.30;;;;;;;-145.68;27.39;71603.38;10553654;28;20717;-75
2023/07/07 11:35:13;;;;;;;4.40;2.30;;;;;;;-145.68;26.88;71463.53;10554359;28;20218;-74
2023/07/07 11:40:38;;;;;;;4.45;2.45;;;;;;;-145.68;26.52;71481.53;10570665;28;20201;-74
2023/07/07 11:46:14;;;;;;;3.00;2.00;;;;;;;-145.68;26.64;71545.44;10573342;28;20223;-74
2023/07/07 11:51:45;;;;;;;3.28;2.40;;;;;;;-145.68;25.08;71387.63;10558427;28;20182;-75
2023/07/07 11:57:27;;;;;;;4.35;2.22;;;;;;;-145.68;26.97;71807.19;10573557;28;20229;-74
2023/07/07 12:02:37;;;;;;;4.63;2.00;;;;;;;-145.68;27.37;71783.19;10555234;28;20201;-74
2023/07/07 12:07:52;;;;;;;5.28;2.33;;;;;;;-145.68;26.38;71747.25;10555251;28;20225;-74
2023/07/07 12:13:00;;;;;;;4.25;2.05;;;;;;;-145.68;30.02;72080.91;10573513;28;20268;-74
2023/07/07 12:18:10;;;;;;;4.90;2.10;;;;;;;-145.68;29.31;72254.75;10554638;28;20314;-74
2023/07/07 12:23:15;;;;;;;2.45;1.95;;;;;;;-145.68;29.13;72052.94;10553470;28;20201;-74
2023/07/07 12:28:15;;;;;;;4.82;2.63;;;;;;;-145.68;28.76;72176.81;10556301;28;20300;-74
2023/07/07 12:33:16;;;;;;;4.20;2.70;;;;;;;-145.68;27.88;71789.19;10579654;28;20693;-74
2023/07/07 12:38:28;;;;;;;3.70;2.78;;;;;;;-145.68;27.15;71861.13;10579200;28;20263;-74
2023/07/07 12:43:39;;;;;;;4.35;2.70;;;;;;;-145.68;27.83;72012.97;10577010;28;20642;-74
2023/07/07 12:48:39;;;;;;;2.97;2.20;;;;;;;-145.68;27.33;71863.13;10559994;28;20623;-74
2023/07/07 12:53:42;;;;;;;3.97;2.25;;;;;;;-145.68;27.57;71929.06;10579746;28;20189;-75
2023/07/07 12:58:45;;;;;;;2.80;2.28;;;;;;;-145.68;26.05;71533.47;10561495;28;20181;-75
2023/07/07 13:04:07;;;;;;;5.13;2.53;;;;;;;-145.68;25.57;71619.38;10579580;28;20724;-75
2023/07/07 13:09:13;;;;;;;6.32;2.30;;;;;;;-145.68;25.92;71455.56;10579212;28;20218;-75
2023/07/07 13:14:30;;;;;;;2.75;2.15;;;;;;;-145.68;26.28;71577.41;10579585;28;20660;-75
2023/07/07 13:19:33;;;;;;;3.58;2.20;;;;;;;-145.68;27.85;71901.09;10578118;28;20186;-75
2023/07/07 13:24:40;;;;;;;2.72;2.10;;;;;;;-145.68;25.18;71471.53;10578950;28;20559;-75
2023/07/07 13:29:40;;;;;;;2.58;2.20;;;;;;;-145.68;25.10;71315.72;10559478;28;20220;-75
2023/07/07 13:34:40;;;;;;;4.10;2.25;;;;;;;-145.68;24.64;71445.56;10578674;28;20357;-74
2023/07/07 13:39:41;;;;;;;2.47;2.10;;;;;;;-145.68;25.41;71533.47;10559334;27;20220;-75
2023/07/07 13:45:34;;;;;;;2.65;2.25;;;;;;;-145.68;25.85;71715.28;10577677;28;20882;-75
2023/07/07 13:50:36;;;;;;;3.20;2.30;;;;;;;-145.68;24.67;71233.81;10530048;28;20276;-75
2023/07/07 13:55:37;;;;;;;3.03;2.38;;;;;;;-145.68;23.16;70964.13;10534829;28;20198;-75
2023/07/07 14:00:38;;;;;;;3.35;2.28;;;;;;;-145.68;24.42;71369.66;10553264;28;20239;-75
2023/07/07 14:05:39;;;;;;;3.10;2.20;;;;;;;-145.68;25.29;71293.72;10577348;28;20312;-75
2023/07/07 14:10:42;;;;;;;5.50;2.80;;;;;;;-145.68;24.20;71247.78;10575515;28;20193;-75
2023/07/07 14:15:51;;;;;;;2.72;2.00;;;;;;;-145.68;22.91;70822.31;10576422;28;20172;-75
2023/07/07 14:20:52;;;;;;;2.75;2.20;;;;;;;-145.68;22.45;70682.50;10557700;28;20193;-76
2023/07/07 14:25:57;;;;;;;3.88;2.20;;;;;;;-145.68;22.94;70782.34;10575573;28;20216;-76
2023/07/07 14:31:02;;;;;;;5.97;2.15;;;;;;;-145.68;22.52;70914.19;10557232;28;20732;-76
2023/07/07 14:36:03;;;;;;;4.78;2.03;;;;;;;-145.68;21.88;70712.44;10558489;28;20733;-76
2023/07/07 14:41:13;;;;;;;4.27;2.40;;;;;;;-145.68;21.10;70432.81;10574512;28;20216;-76
2023/07/07 14:46:19;;;;;;;3.88;2.45;;;;;;;-145.68;21.69;70660.53;10557562;28;21066;-76
2023/07/07 14:51:27;;;;;;;4.78;2.42;;;;;;;-145.68;21.54;70648.53;10574378;28;20201;-75
2023/07/07 14:56:31;;;;;;;3.95;2.63;;;;;;;-145.68;22.81;70968.13;10575407;28;20185;-75
2023/07/07 15:01:32;;;;;;;3.80;2.58;;;;;;;-145.68;22.00;70658.53;10556023;28;20193;-75
2023/07/07 15:06:35;;;;;;;5.10;2.72;;;;;;;-145.68;24.23;71313.72;10557902;28;20213;-75
2023/07/07 15:11:39;;;;;;;8.48;3.13;;;;;;;-145.68;24.06;71095.97;10554905;28;20228;-75
2023/07/07 15:16:40;;;;;;;3.53;2.35;;;;;;;-145.68;23.30;70972.13;10555677;28;20189;-75
2023/07/07 15:21:41;;;;;;;4.55;2.30;;;;;;;-145.68;22.43;70762.38;10556635;28;20193;-75
2023/07/07 15:26:42;;;;;;;5.88;3.08;;;;;;;-145.68;23.32;71227.81;10573799;28;20212;-75
2023/07/07 15:31:43;;;;;;;2.88;2.42;;;;;;;-145.68;23.44;71093.97;10555130;28;20265;-75
2023/07/07 15:36:43;;;;;;;3.88;2.60;;;;;;;-145.68;22.31;70728.44;10574156;28;20189;-75
2023/07/07 15:41:45;;;;;;;2.95;2.45;;;;;;;-145.68;22.81;70786.34;10573871;28;20589;-75
2023/07/07 15:46:45;;;;;;;5.00;2.53;;;;;;;-145.68;23.07;70942.16;10573204;28;20282;-75
2023/07/07 15:51:46;;;;;;;3.27;2.60;;;;;;;-145.68;22.34;70774.38;10573885;28;20247;-75
2023/07/07 15:56:48;;;;;;;3.67;2.75;;;;;;;-145.68;22.66;70866.25;10573697;28;20182;-75
2023/07/07 16:01:51;;;;;;;4.60;2.40;;;;;;;-145.68;22.77;70828.31;10573695;28;20695;-76
2023/07/07 16:06:53;;;;;;;4.85;2.60;;;;;;;-145.68;24.06;71137.91;10581090;28;20217;-75
2023/07/07 16:11:53;;;;;;;3.22;2.40;;;;;;;-145.68;24.96;71233.81;10580733;28;20212;-75
2023/07/07 16:16:53;;;;;;;4.20;2.40;;;;;;;-145.68;24.62;71213.81;10582409;28;20751;-75
2023/07/07 16:21:54;;;;;;;6.00;2.57;;;;;;;-145.68;25.72;71417.59;10582750;28;20649;-75
2023/07/07 16:26:54;;;;;;;4.30;2.50;;;;;;;-145.68;26.95;71633.34;10582317;28;20835;-75
2023/07/07 16:31:54;;;;;;;4.93;2.47;;;;;;;-145.68;27.14;71657.34;10581763;28;20879;-74
2023/07/07 16:36:55;;;;;;;3.03;2.60;;;;;;;-145.68;27.22;71729.25;10582359;28;20806;-75
2023/07/07 16:41:56;;;;;;;2.43;2.20;;;;;;;-145.68;27.84;71721.25;10582143;28;20785;-74
2023/07/07 16:46:56;;;;;;;4.22;2.50;;;;;;;-145.68;27.55;71743.25;10581893;28;20782;-74
2023/07/07 16:51:56;;;;;;;5.37;3.20;;;;;;;-145.68;28.21;71797.19;10581609;28;20281;-74
2023/07/07 16:56:57;;;;;;;7.87;4.63;;;;;;;-145.68;29.14;71861.13;10581677;28;20496;-74
2023/07/07 17:01:57;;;;;;;6.63;3.07;;;;;;;-145.68;28.99;71945.03;10581217;28;20440;-74
2023/07/07 17:06:58;;;;;;;7.38;2.67;;;;;;;-145.68;29.90;72022.97;10580618;28;20479;-74
2023/07/07 17:11:58;;;;;;;4.22;2.70;;;;;;;-145.68;29.80;72060.94;10580974;28;20725;-74
2023/07/07 17:16:58;;;;;;;7.20;2.50;;;;;;;-145.68;30.24;72076.91;10579449;28;20189;-74
2023/07/07 17:21:59;;;;;;;4.17;2.80;;;;;;;-145.68;30.11;72044.94;10580609;28;20466;-74
2023/07/07 17:26:59;;;;;;;3.67;2.57;;;;;;;-145.68;30.49;72100.88;10579997;28;20562;-74
2023/07/07 17:31:59;;;;;;;3.70;2.43;;;;;;;-145.68;31.34;72128.84;10580219;28;20490;-74
2023/07/07 17:37:00;;;;;;;3.43;2.30;;;;;;;-145.68;31.57;72178.81;10579889;28;20439;-74
2023/07/07 17:42:00;;;;;;;4.63;2.40;;;;;;;-145.68;32.00;72220.78;10579016;28;20535;-73
2023/07/07 17:47:00;;;;;;;3.73;2.83;;;;;;;-145.68;32.75;72244.75;10578333;28;20476;-74
2023/07/07 17:52:02;;;;;;;5.78;2.92;;;;;;;-145.68;32.50;72262.72;10577527;28;20454;-74
2023/07/07 17:57:03;;;;;;;8.02;3.40;;;;;;;-145.68;32.84;72268.72;10577104;28;20190;-74
2023/07/07 18:02:09;;;;;;;5.20;2.80;;;;;;;-145.68;33.36;72292.72;10575722;28;20186;-74
2023/07/07 18:07:09;;;;;;;5.95;2.38;;;;;;;-145.68;32.28;72318.69;10576241;28;20221;-73
2023/07/07 18:12:10;;;;;;;5.85;2.63;;;;;;;-145.68;32.79;72320.69;10576843;28;20197;-74
2023/07/07 18:17:12;;;;;;;5.88;2.65;;;;;;;-145.68;34.44;72370.63;10557274;28;20223;-74
2023/07/07 18:22:12;;;;;;;6.70;2.83;;;;;;;-145.68;34.81;72432.59;10558173;28;20181;-74
2023/07/07 18:27:13;;;;;;;6.80;2.97;;;;;;;-145.68;33.80;72396.63;10575748;28;20214;-73
2023/07/07 18:32:13;;;;;;;8.50;3.00;;;;;;;-145.68;34.73;72458.56;10576136;28;20582;-74
2023/07/07 18:37:14;;;;;;;4.83;3.73;;;;;;;-145.68;35.15;72494.53;10575127;28;20975;-74
2023/07/07 18:42:14;;;;;;;3.63;2.83;;;;;;;-145.68;34.19;72508.50;10575433;28;20518;-73
2023/07/07 18:47:15;;;;;;;8.90;3.03;;;;;;;-145.68;36.39;72552.47;10576028;28;20210;-73
2023/07/07 18:52:15;;;;;;;7.55;3.65;;;;;;;-145.68;38.14;72662.38;10575120;28;20283;-73
2023/07/07 18:57:16;;;;;;;6.78;3.55;;;;;;;-145.68;39.20;72712.34;10575010;28;20569;-73
2023/07/07 19:02:16;;;;;;;5.63;3.83;;;;;;;-145.68;40.22;72782.28;10576028;28;20564;-73
2023/07/07 19:07:16;;;;;;;6.97;4.60;;;;;;;-145.68;41.62;72874.22;10575553;28;20664;-73
2023/07/07 19:12:17;;;;;;;11.35;3.28;;;;;;;-145.68;43.44;72948.16;10557783;28;20562;-72
2023/07/07 19:17:17;;;;;;;8.52;4.75;;;;;;;-145.68;44.24;72980.13;10572397;28;20188;-73
2023/07/07 19:22:17;;;;;;;6.13;3.88;;;;;;;-145.68;45.30;73050.09;10556332;28;20217;-73
2023/07/07 19:27:18;;;;;;;5.55;3.67;;;;;;;-145.68;45.09;73092.06;10574141;28;20209;-72
2023/07/07 19:32:19;;;;;;;7.80;4.10;;;;;;;-145.68;45.21;73140.03;10574697;28;20233;-75
2023/07/07 19:37:19;;;;;;;5.82;4.03;;;;;;;-145.68;45.59;73160.00;10576091;28;20250;-72
2023/07/07 19:42:20;;;;;;;5.93;3.90;;;;;;;-145.68;46.04;73188.00;10583880;28;20189;-72
2023/07/07 19:47:21;;;;;;;8.95;5.13;;;;;;;-145.68;46.31;73201.97;10582969;28;20253;-72
2023/07/07 19:52:21;;;;;;;9.38;6.15;;;;;;;-145.68;47.27;73239.97;10583751;28;20190;-73
2023/07/07 19:57:22;;;;;;;10.55;4.70;;;;;;;-145.68;48.06;73275.94;10583221;28;20196;-72
2023/07/07 20:02:26;;;;;;;8.27;4.80;;;;;;;-145.68;48.23;73301.91;10582859;28;20189;-72
2023/07/07 20:07:26;;;;;;;6.45;4.00;;;;;;;-145.68;48.73;73339.91;10583092;28;20271;-72
2023/07/07 20:12:26;;;;;;;7.05;3.95;;;;;;;-145.68;49.41;73367.88;10582804;28;20251;-72
2023/07/07 20:17:27;;;;;;;6.35;3.97;;;;;;;-145.68;49.92;73395.84;10582434;28;20185;-73
2023/07/07 20:22:27;;;;;;;5.97;3.80;;;;;;;-145.68;50.36;73419.84;10563957;28;20335;-73
2023/07/07 20:27:27;;;;;;;6.40;3.45;;;;;;;-145.68;50.43;73425.84;10582211;28;20225;-72
2023/07/07 20:32:28;;;;;;;5.60;3.60;;;;;;;-145.68;50.71;73447.81;10581475;28;20286;-73
2023/07/07 20:37:28;;;;;;;5.30;3.63;;;;;;;-145.68;50.63;73453.81;10581316;28;20206;-75
2023/07/07 20:42:28;;;;;;;5.07;3.60;;;;;;;-145.68;51.16;73473.81;10581807;28;20277;-73
2023/07/07 20:47:29;;;;;;;8.45;3.95;;;;;;;-145.68;51.76;73517.78;10580226;28;20218;-73
2023/07/07 20:52:29;;;;;;;5.38;3.28;;;;;;;-145.68;52.26;73547.75;10581033;28;20281;-73
2023/07/07 20:57:29;;;;;;;6.90;3.20;;;;;;;-145.68;52.85;73571.75;10581208;28;20274;-73
2023/07/07 21:02:30;;;;;;;5.00;4.03;;;;;;;-145.68;52.83;73579.75;10581148;28;20182;-73
2023/07/07 21:07:30;;;;;;;7.95;3.67;;;;;;;-145.68;53.02;73593.75;10580772;28;20226;-73
2023/07/07 21:12:30;;;;;;;5.40;3.40;;;;;;;-145.68;52.74;73599.72;10581035;28;20193;-73
2023/07/07 21:17:33;;;;;;;5.20;3.47;;;;;;;-145.68;52.98;73615.72;10580776;28;20296;-73
2023/07/07 21:22:33;;;;;;;6.22;3.70;;;;;;;-145.68;53.30;73639.72;10562231;28;20196;-73
2023/07/07 21:27:33;;;;;;;7.72;3.45;;;;;;;-145.68;53.23;73651.72;10580811;28;20560;-73
2023/07/07 21:32:34;;;;;;;9.05;3.50;;;;;;;-145.68;53.59;73659.69;10579991;28;20649;-73
2023/07/07 21:37:34;;;;;;;4.70;3.45;;;;;;;-145.68;53.90;73687.69;10579707;28;20540;-72
2023/07/07 21:42:34;;;;;;;6.25;3.30;;;;;;;-145.68;53.91;73699.69;10579644;28;20592;-73
2023/07/07 21:47:35;;;;;;;3.95;3.30;;;;;;;-145.68;53.84;73707.69;10579674;28;20558;-72
2023/07/07 21:52:35;;;;;;;9.75;3.83;;;;;;;-145.68;54.21;73719.66;10579518;28;20643;-73
2023/07/07 21:57:40;;;;;;;4.43;3.20;;;;;;;-145.68;54.55;73739.66;10560878;28;20526;-72
2023/07/07 22:02:40;;;;;;;3.70;3.00;;;;;;;-145.68;54.77;73753.66;10560725;28;20202;-72
2023/07/07 22:07:42;;;;;;;5.82;3.50;;;;;;;-145.68;55.13;73777.63;10578745;28;20224;-73
2023/07/07 22:12:42;;;;;;;5.60;3.38;;;;;;;-145.68;54.72;73765.66;10578454;28;20185;-73
2023/07/07 22:17:43;;;;;;;5.13;2.90;;;;;;;-145.68;54.73;73775.63;10578545;28;20182;-73
2023/07/07 22:22:43;;;;;;;5.07;2.88;;;;;;;-145.68;54.69;73789.63;10578328;28;20190;-73
2023/07/07 22:27:44;;;;;;;4.63;3.45;;;;;;;-145.68;54.94;73791.63;10577947;28;20247;-72
2023/07/07 22:32:44;;;;;;;4.40;3.45;;;;;;;-145.68;54.95;73795.63;10577171;28;20221;-73
2023/07/07 22:37:44;;;;;;;8.70;3.25;;;;;;;-145.68;55.38;73807.63;10577693;28;20198;-72
2023/07/07 22:42:45;;;;;;;4.32;2.95;;;;;;;-145.68;55.50;73821.63;10577222;28;20242;-73
2023/07/07 22:47:45;;;;;;;3.97;3.22;;;;;;;-145.68;55.73;73839.59;10577484;28;20216;-73
2023/07/07 22:52:48;;;;;;;6.20;3.22;;;;;;;-145.68;55.76;73827.59;10577391;28;20186;-73
2023/07/07 22:57:49;;;;;;;5.75;3.05;;;;;;;-145.68;55.40;73835.59;10576969;28;20239;-73
2023/07/07 23:02:49;;;;;;;5.60;3.40;;;;;;;-145.68;54.96;73825.63;10577053;28;20517;-73